East Orange, Vermont
Current Conditions -  °F | °C
As of 11:51 PM on Tuesday 25 Nov 2014 (Local Time) from KMPV Reporting Station
Overcast Overcast  
Wind Chill:   Ceiling: 3900
Heat Index:   Visibility: 10mi
Dew Point: -4°   Wind: 8mph
Humidity: 55%   Direction: 290°WNW
Pressure: 30.1"   Gusts: NA
Location:  44.1344°N, 72.2538°W
Report Text: KMPV 260451Z AUTO 29007KT 10SM OVC039 04/M04 A3010 RMK AO2 SLP202 T00441039 401560033
Loading
Personal Weather Stations






























Interactive Weather Map New forecast layout! Learn more

10-Day Weather Forecast

Advertisements
Track Severe Weather on mobile